Weather observations for the past three days for
Langlade County Airport
Metric (Imperial)
Date Time (cdt) Wind (kph) Vis. (km) Weather Sky Cond. Temperature (ºC) Relative Humidity Wind Chill (°C) Heat Index (°C) Pressure Precipitation (cm)
Air Dwpt 6 hour altimeter (cm) sea level (mb) 1 hr 3 hr 6 hr
Max. Min.
05 05:15 NE 9 11.27 Overcast OVC005 19.1 19.1 100% 76.33 0.0
05 04:55 N 9 11.27 Overcast OVC005 19.2 19.2 100% 76.33 0.0
05 04:35 NE 7 16.09 Overcast BKN005 OVC011 19.3 19.3 100% 76.3 0.0
05 04:15 NE 11 16.09 Overcast BKN003 OVC011 19.5 19.5 100% 76.3 0.0
05 03:55 NE 11 16.09 Overcast OVC003 19.6 19.6 100% 76.33 0.0
05 03:35 NE 13 16.09 Overcast OVC003 19.8 19.8 100% 76.3 0.0
05 03:15 NE 9 11.27 Overcast OVC003 19.8 19.8 100% 76.3 0.0
05 02:55 NE 11 4.83 Fog/Mist OVC003 20 20 100% 76.3 0.0
05 02:35 NE 7 3.22 Fog/Mist OVC003 20.1 20.1 100% 76.3 0.0
05 02:15 NE 6 4.02 Fog/Mist OVC003 20.1 20.1 100% 76.3 0.0
05 01:55 Calm 4.02 Fog/Mist OVC003 20.1 20.1 100% 76.28 0.0
05 01:35 NE 6 3.22 Fog/Mist OVC003 20.1 20.1 100% 76.28 0.0
05 01:15 NE 6 2.01 Fog/Mist OVC003 20.2 20.2 100% 76.28 0.0
05 00:55 E 9 2.41 Fog/Mist OVC003 20.1 20.1 23 20.1 100% 76.28 0.0 0.38
05 00:35 NE 6 2.41 Fog/Mist OVC003 20.1 20.1 100% 76.28 0.0
05 00:15 E 7 1.61 Fog/Mist OVC003 20.2 20.2 100% 76.28 0.0
04 23:55 E 9 2.41 Fog/Mist OVC003 20.2 20.2 100% 76.28 0.0
04 23:35 E 9 8.05 Fog/Mist OVC003 20.5 20.5 100% 76.28 0.0
04 23:15 E 11 8.05 Fog/Mist OVC003 20.5 20.5 100% 76.25 0.0
04 22:55 NE 11 8.05 Fog/Mist OVC003 20.6 20.6 100% 76.28 0.0
04 22:35 NE 9 16.09 Overcast OVC003 20.7 20.7 100% 76.28 0.0
04 22:15 E 6 11.27 Overcast OVC003 20.7 20.7 100% 76.28 0.0
04 21:55 E 11 16.09 Overcast OVC003 20.8 20.8 100% 76.25 0.0 0.38
04 21:35 NE 11 11.27 Overcast OVC005 21.1 21.1 100% 76.25 0.0
04 21:15 NE 9 16.09 Overcast OVC005 21.2 21.2 100% 76.25 0.0
04 20:55 NE 9 16.09 Overcast OVC005 21.5 21.5 100% 76.25 0.0 0.2
04 20:35 E 9 16.09 Overcast BKN004 OVC009 21.6 21.6 100% 76.25 0.0 0.2
04 20:15 NE 13 8.05 Light Rain BKN004 BKN008 OVC029 21.8 21.8 100% 76.23 0.0 0.18
04 19:55 Calm 16.09 Light Rain OVC006 22.1 22.1 100% 76.25 0.0
04 19:35 E 13 6.44 Fog/Mist OVC004 22.5 22.5 100% 76.2 0.0
04 19:15 E 15 8.05 Fog/Mist OVC004 22.7 22.7 100% 76.17 0.0
04 18:55 NE 11 4.83 Fog/Mist OVC004 23 23 25.5 23 100% 76.17 0.0
04 18:35 E 9 4.02 Fog/Mist OVC004 23 23 100% 76.17 0.0
04 18:15 E 6 6.44 Fog/Mist OVC004 23 23 100% 76.15 0.0
04 17:50 E 11 8.05 Fog/Mist OVC004 23.1 23.1 100% 76.1 0.0
04 17:35 E 11 8.05 Fog/Mist OVC004 23.2 23.2 100% 76.12 0.0
04 17:15 E 13 16.09 Overcast OVC004 23.3 23.2 99% 76.12 0.0
04 16:55 NE 11 16.09 Overcast OVC004 23.3 23.2 99% 76.1 0.0
04 16:35 E 11 16.09 Overcast OVC004 23.5 23.2 98% 76.1 0.0
04 16:15 E 9 8.05 Fog/Mist OVC004 23.5 23.5 100% 76.07 0.0
04 15:55 E 9 4.83 Fog/Mist OVC004 23.7 23.7 100% 76.07 0.0
04 15:35 NE 11 4.83 Fog/Mist OVC004 23.9 23.9 100% 22 76.07 0.0
04 15:15 E 11 11.27 Overcast OVC006 24.4 24.1 98% 24 76.07 0.0
04 14:55 E 11 16.09 Overcast OVC006 24.8 24.3 97% 25 76.1 0.0
04 14:35 E 7 16.09 Overcast OVC008 25 24.2 95% 25 76.1 0.0
04 14:15 E 7 16.09 Overcast OVC008 25 24.2 95% 25 76.1 0.0
04 13:55 E 6 16.09 Overcast OVC008 25.1 24.2 95% 26 76.1 0.0
04 13:35 Calm 16.09 Overcast OVC008 25.4 24.2 93% 27 76.1 0.0
04 13:15 Calm 16.09 Overcast OVC008 25.2 24 93% 26 76.07 0.0
04 12:55 Calm 16.09 Overcast OVC006 25.1 24 25.1 20.7 94% 26 76.07 0.0
04 12:35 Calm 16.09 Overcast OVC006 24.8 23.8 94% 25 76.1 0.0
04 12:15 S 7 16.09 Overcast OVC004 24.5 24 97% 24 76.1 0.0
04 11:55 S 6 16.09 Overcast OVC004 24.2 23.7 97% 23 76.1 0.0
04 11:35 Calm 16.09 Overcast OVC004 24 23.7 98% 23 76.1 0.0
04 11:15 S 9 16.09 Overcast OVC004 23.6 23.6 100% 76.1 0.0
04 10:55 S 7 16.09 Overcast OVC004 23.1 23.1 100% 76.1 0.0
04 10:35 S 9 16.09 Overcast OVC004 22.7 22.7 100% 76.1 0.0
04 10:15 S 13 16.09 Overcast OVC004 22.7 22.7 100% 76.1 0.0
04 09:55 S 13 16.09 Overcast OVC004 22.6 22.6 100% 76.07 0.0
04 09:35 SE 9 16.09 Overcast OVC004 22.5 22.5 100% 76.07 0.0
04 09:15 SE 13 16.09 Overcast OVC002 22 22 100% 76.1 0.0
04 08:55 SE 11 4.83 Fog/Mist OVC002 21.6 21.6 100% 76.1 0.0
04 08:35 S 15 0.24 Fog OVC002 21.3 21.3 100% 76.12 0.0
04 08:15 S 15 0.24 Fog OVC002 21.2 21.2 100% 76.12 0.0
04 07:55 SE 9 0.24 Fog OVC002 21 21 100% 76.12 0.0
04 07:35 SE 9 0.24 Fog OVC002 20.8 20.8 100% 76.1 0.0
04 07:15 E 7 0.24 Fog OVC002 20.8 20.8 100% 76.07 0.0
04 06:55 SE 7 0.40 Fog OVC002 20.7 20.7 21.3 20.5 100% 76.07 0.0 1.17
04 06:35 SE 11 1.21 Fog/Mist OVC002 20.7 20.7 100% 76.07 0.0
04 06:15 SE 13 2.41 Fog/Mist OVC002 20.7 20.7 100% 76.02 0.0
04 05:55 E 9 1.21 Fog/Mist OVC002 20.7 20.7 100% 76.05 0.0
04 05:35 E 11 3.22 Fog/Mist OVC002 21 21 100% 76.05 0.0
04 05:15 E 11 16.09 Overcast OVC004 21 21 100% 76.02 0.0
04 04:55 NE 9 16.09 Overcast OVC004 21.1 21.1 100% 76.07 0.0
04 04:35 SE 6 16.09 Overcast OVC004 21.2 21.2 100% 76.05 0.0
04 04:15 Calm 16.09 Overcast OVC004 21.1 21.1 100% 76.07 0.0
04 03:55 Calm 16.09 Light Drizzle BKN004 OVC010 21 21 100% 76.05 0.0 0.23 1.17
04 03:35 E 6 16.09 Light Rain BKN004 OVC011 20.8 20.8 100% 76.02 0.0 0.23
04 03:15 SE 13 8.05 Light Rain SCT004 BKN010 OVC018 20.7 20.7 100% 76 0.0 0.18
04 02:55 SE 24 G 30 4.83 Heavy Rain BKN004 OVC010 20.7 20.7 100% 76 0.0 0.76
04 02:35 E 22 8.05 Rain OVC004 20.6 20.6 100% 76 0.0 0.2
04 02:15 E 13 6.44 Light Rain OVC002 20.5 20.5 100% 76.05 0.0 0.08
04 01:55 E 17 3.22 Rain OVC002 20.5 20.5 100% 76.05 0.0
04 01:35 SE 15 6.44 Fog/Mist OVC002 20.5 20.5 100% 76.07 0.0
04 01:15 E 13 8.05 Fog/Mist OVC002 20.7 20.7 100% 76.05 0.0
04 00:55 E 13 8.05 Fog/Mist OVC004 20.6 20.6 22.3 20.6 100% 76.07 0.0 0.2
04 00:35 E 15 11.27 Overcast OVC004 20.6 20.6 100% 76.07 0.0
04 00:15 E 13 16.09 Overcast OVC004 20.6 20.6 100% 76.07 0.0
03 23:55 E 19 16.09 Overcast OVC004 20.6 20.6 100% 76.07 0.0
03 23:35 E 13 16.09 Overcast OVC004 20.7 20.7 100% 76.12 0.0
03 23:15 SE 17 16.09 Overcast OVC004 20.7 20.7 100% 76.12 0.0
03 22:55 SE 15 16.09 Overcast BKN004 OVC075 20.8 20.8 100% 76.12 0.0 0.08
03 22:35 SE 20 16.09 Overcast SCT004 BKN075 OVC090 21 21 100% 76.12 0.0 0.08
03 22:15 E 22 11.27 Light Rain SCT030 BKN090 OVC120 21.2 21.2 100% 76.12 0.0 0.08
03 21:55 SE 13 11.27 Rain SCT007 SCT040 BKN110 21.4 21.2 99% 76.17 0.0 0.08 0.08
03 21:35 E 11 16.09 Mostly Cloudy SCT007 BKN011 21.5 21.2 98% 76.17 0.0
03 21:15 E 13 16.09 Mostly Cloudy SCT005 BKN011 21.3 21.2 99% 76.15 0.0
03 20:55 SE 9 16.09 Mostly Cloudy BKN007 BKN011 21.5 21.3 99% 76.15 0.0
03 20:35 SE 9 16.09 Overcast OVC007 22 21.6 98% 76.17 0.0
03 20:15 E 11 16.09 Overcast OVC007 22 21.7 98% 76.15 0.0
03 19:55 E 7 16.09 Overcast OVC007 22.1 21.8 98% 76.15 0.0
03 19:35 E 9 16.09 Overcast OVC007 22.2 21.7 97% 76.12 0.0
03 19:15 E 6 16.09 Mostly Cloudy BKN007 BKN050 BKN120 22.2 21.7 97% 76.15 0.0
03 18:55 SE 9 16.09 Fair CLR 22.3 21.6 26.4 22.3 96% 76.1 0.0
03 18:35 SE 7 16.09 Fair CLR 22.5 21.5 94% 76.1 0.0
03 18:15 SE 7 16.09 Fair CLR 22.6 21.5 94% 76.15 0.0
03 17:55 SE 9 16.09 Fair CLR 22.8 21.3 91% 76.12 0.0
03 17:35 SE 11 16.09 Partly Cloudy SCT100 23 21.5 91% 76.07 0.0
03 17:15 E 11 16.09 Partly Cloudy SCT090 23.3 21.5 90% 76.07 0.0
03 16:55 E 7 16.09 Partly Cloudy SCT010 SCT090 23.1 21.3 90% 76.1 0.0
03 16:35 E 9 16.09 Mostly Cloudy SCT012 BKN090 23 21.5 91% 76.1 0.0
03 16:15 E 13 16.09 Mostly Cloudy BKN012 23.1 21.5 91% 76.1 0.0
03 15:55 E 13 16.09 Overcast OVC010 23.1 21.4 90% 76.1 0.0
03 15:35 SE 13 16.09 Overcast OVC010 23.2 21.3 89% 76.15 0.0
03 15:15 E 15 16.09 Overcast OVC010 23.6 21.6 89% 76.15 0.0
03 14:55 E 15 16.09 Mostly Cloudy BKN010 23.5 21.6 89% 76.15 0.0
03 14:35 SE 13 16.09 Partly Cloudy SCT010 24 21.8 88% 24 76.12 0.0
03 14:15 SE 15 16.09 Mostly Cloudy BKN012 BKN075 24.4 22.1 87% 25 76.12 0.0
03 13:55 SE 15 16.09 Mostly Cloudy BKN012 BKN075 25.2 22.6 86% 26 76.1 0.0
03 13:35 NE 11 16.09 Mostly Cloudy BKN012 26.2 22.8 82% 28 76.1 0.0
03 13:15 NE 9 16.09 Partly Cloudy SCT012 25.6 22.9 85% 27 76.1 0.0
03 12:55 E 7 16.09 Fair CLR 25.8 23 25.8 20 85% 27 76.1 0.0 0.61
03 12:35 S 7 16.09 Fair CLR 24.8 22.2 86% 25 76.07 0.0
03 12:15 Calm 16.09 Fair CLR 24 22.1 89% 24 76.07 0.0
03 11:55 NE 15 16.09 Mostly Cloudy SCT004 SCT075 BKN110 22.9 22.6 98% 76.1 0.0
03 11:35 NE 11 16.09 Overcast SCT004 BKN075 OVC095 21.2 21.2 100% 76.15 0.0
03 11:15 NE 15 16.09 Mostly Cloudy SCT011 SCT039 BKN085 21.1 21.1 100% 76.15 0.0
03 10:55 NE 7 11.27 Rain BKN009 BKN032 OVC060 20.5 20.5 100% 76.17 0.0 0.61
03 10:35 E 7 2.82 Heavy Rain OVC007 20.3 20.3 100% 76.2 0.0 0.51
03 10:15 SE 9 16.09 Light Rain OVC013 20.7 20.3 98% 76.17 0.0
03 09:55 Calm 16.09 Overcast OVC011 20.8 20.2 96% 76.17 0.0
03 09:35 E 6 16.09 Overcast OVC011 20.9 20.4 97% 76.15 0.0
03 09:15 E 9 16.09 Overcast OVC009 20.7 20.4 98% 76.15 0.0
03 08:55 E 7 11.27 Light Rain OVC006 20.6 20.6 100% 76.15 0.0
03 08:35 E 6 8.05 Fog/Mist OVC002 20.5 20.5 100% 76.12 0.0
03 08:15 E 9 6.44 Fog/Mist OVC002 20.5 20.5 100% 76.12 0.0
03 07:55 E 13 6.44 Fog/Mist OVC002 20.4 20.4 100% 76.12 0.0
03 07:35 E 9 8.05 Fog/Mist OVC002 20.2 20.2 100% 76.1 0.0
03 07:15 NE 6 6.44 Fog/Mist OVC002 20 20 100% 76.1 0.0
03 06:55 Calm 4.83 Fog/Mist OVC002 20 20 20.3 18.3 100% 76.1 0.0
03 06:35 Calm 8.05 Fog/Mist OVC002 19.8 19.8 100% 76.12 0.0
03 06:15 NE 6 11.27 Overcast OVC002 19.6 19.6 100% 76.1 0.0
03 05:55 E 7 6.44 Fog/Mist OVC004 19.6 19.6 100% 76.1 0.0
03 05:35 E 7 16.09 Mostly Cloudy BKN004 BKN045 19.6 19.6 100% 76.1 0.0
03 05:10 E 11 16.09 Partly Cloudy SCT045 19.5 19.4 99% 76.07 0.0
03 04:55 E 11 16.09 Partly Cloudy SCT045 19.5 19.4 99% 76.1 0.0
03 04:35 Calm 16.09 Fair CLR 18.7 18.7 100% 76.12 0.0
03 04:15 Calm 16.09 Fair CLR 18.6 18.6 100% 76.1 0.0
03 03:55 Calm 16.09 Fair CLR 18.4 18.3 99% 76.07 0.0
03 03:35 NE 6 16.09 Fair CLR 18.6 18.5 99% 76.07 0.0
03 03:15 NE 7 16.09 Fair CLR 18.7 18.3 98% 76.07 0.0
03 02:55 NE 6 16.09 Fair CLR 18.6 18.5 99% 76.1 0.0
03 02:35 NE 6 16.09 Fair CLR 18.8 18.5 98% 76.1 0.0
03 02:15 Calm 16.09 Partly Cloudy SCT095 19 18.5 97% 76.1 0.0
03 01:55 Calm 16.09 Partly Cloudy SCT038 19.1 18.6 97% 76.1 0.0
03 01:35 NE 6 16.09 Mostly Cloudy BKN038 19.6 18.8 95% 76.12 0.0
03 01:15 NE 9 16.09 Partly Cloudy SCT060 SCT120 20 18.8 93% 76.1 0.0
03 00:55 NE 11 16.09 Mostly Cloudy SCT060 BKN120 20.4 19 27.1 19.5 92% 76.12 0.0
03 00:35 N 6 16.09 Fair CLR 19.5 19.2 98% 76.1 0.0
03 00:15 Calm 16.09 Partly Cloudy SCT120 20 19.5 97% 76.1 0.0
02 23:55 Calm 16.09 Partly Cloudy SCT120 20.1 19.8 98% 76.07 0.0
02 23:35 Calm 16.09 Partly Cloudy SCT045 20.2 19.7 97% 76.07 0.0
02 23:15 Calm 16.09 Partly Cloudy SCT043 20.1 20 99% 76.07 0.0
02 22:55 N 6 16.09 Partly Cloudy SCT043 20.5 20 97% 76.07 0.0
02 22:35 Calm 16.09 Fair CLR 20.8 20.2 96% 76.07 0.0
02 22:15 Calm 16.09 Fair CLR 20.8 20.4 98% 76.07 0.0
02 21:55 Calm 16.09 Fair CLR 21.2 20.3 95% 76.1 0.0
02 21:35 Calm 16.09 Fair CLR 21.7 20.5 93% 76.1 0.0
02 21:15 Calm 16.09 Fair CLR 21.8 20.6 93% 76.07 0.0
02 20:55 Calm 16.09 Fair CLR 21.9 20.6 92% 76.07 0.0
02 20:35 Calm 16.09 Fair CLR 22.1 21 94% 76.07 0.0
02 20:15 Calm 16.09 Fair CLR 23.1 20.1 83% 76.05 0.0
02 19:55 Calm 16.09 Fair CLR 23.2 20.3 84% 76.02 0.0
02 19:35 Calm 16.09 Fair CLR 25 19.9 73% 26 76.02 0.0
02 19:15 Calm 16.09 Fair CLR 26.5 19.9 67% 28 76.02 0.0
02 18:55 Calm 16.09 Fair CLR 27.2 19.5 29.7 26.9 63% 29 76.02 0.0
02 18:35 W 7 16.09 Fair CLR 27.8 19.2 60% 29 76.02 0.0
02 18:15 NW 9 16.09 Fair CLR 27.9 19.3 60% 29 76.02 0.0
02 17:55 W 13 16.09 Fair CLR 28.9 19.5 57% 30 76.02 0.0
02 17:35 W 11 16.09 Fair CLR 29.1 19 54% 30 76.02 0.0
02 17:15 W 9 16.09 Fair CLR 29.4 19.3 55% 31 76.02 0.0
02 16:55 W 13 16.09 Fair CLR 29.4 19 54% 31 76.02 0.0
02 16:30 S 9 16.09 Fair CLR 29.2 19.1 55% 31 76.02 0.0
02 16:15 W 13 16.09 Fair CLR 29.6 19.3 54% 31 76.05 0.0
02 15:55 W 7 16.09 Fair CLR 29.5 19.5 55% 31 76.05 0.0
02 15:35 W 6 16.09 Fair CLR 29.3 19.3 55% 31 76.05 0.0
02 15:15 Calm 16.09 Fair CLR 29.2 19.1 55% 31 76.05 0.0
02 14:55 SW 9 16.09 Fair CLR 28.7 19.3 57% 30 76.07 0.0
02 14:35 W 7 16.09 Fair CLR 28.8 18.7 54% 30 76.07 0.0
02 14:15 NW 9 16.09 Fair CLR 28.7 18.6 54% 30 76.07 0.0
02 13:55 S 6 16.09 Fair CLR 28 18.7 57% 29 76.07 0.0
02 13:35 W 9 16.09 Fair CLR 27.7 19 59% 29 76.1 0.0
02 13:15 W 9 16.09 Fair CLR 27.5 18.8 59% 29 76.1 0.0
02 12:55 S 7 16.09 Fair CLR 26.6 19.2 26.6 18.3 64% 28 76.12 0.0
02 12:35 SW 9 16.09 Fair CLR 26.3 19.2 65% 27 76.12 0.0
02 12:15 Calm 16.09 Fair CLR 25.7 18.9 66% 27 76.12 0.0
02 11:55 SW 6 16.09 Fair CLR 25.1 18.5 67% 26 76.12 0.0
02 11:35 S 11 16.09 Partly Cloudy SCT016 24.8 19.4 72% 26 76.15 0.0
02 11:15 SW 11 16.09 Partly Cloudy SCT016 24.3 19.6 75% 25 76.15 0.0
02 10:55 S 9 16.09 Fair CLR 23.2 18.7 76% 76.15 0.0
02 10:35 S 7 16.09 Partly Cloudy SCT120 23 19.5 81% 76.12 0.0
02 10:15 Calm 16.09 Partly Cloudy SCT120 21.8 19.3 86% 76.12 0.0
02 09:55 Calm 16.09 Partly Cloudy SCT007 21.8 19.4 86% 76.1 0.0
02 09:35 NW 6 16.09 Partly Cloudy SCT007 20.7 19.6 93% 76.12 0.0
02 09:15 Calm 16.09 Partly Cloudy SCT007 SCT120 20 19.4 96% 76.1 0.0
02 08:55 Calm 16.09 Partly Cloudy SCT007 20 19.2 95% 76.15 0.0
02 08:35 Calm 16.09 Fair CLR 19.2 19.2 100% 76.15 0.0
02 08:15 S 17 16.09 Partly Cloudy SCT005 SCT120 18.8 18.8 100% 76.23 0.0
02 07:55 S 11 16.09 Partly Cloudy SCT120 18.5 18.5 100% 76.23 0.0
02 07:35 Calm 16.09 Fair CLR 18.5 18.5 100% 76.17 0.0
02 07:15 W 6 16.09 Fair CLR 18.3 18.3 100% 76.17 0.0
02 06:55 SW 11 16.09 Light Rain SCT027 SCT045 SCT095 18.3 18.3 20.7 18.3 100% 76.17 0.0 0.03 0.69
02 06:35 N 7 16.09 Light Rain SCT090 BKN120 18.3 18.3 100% 76.05 0.0 0.03
02 06:15 W 7 16.09 Light Drizzle SCT080 BKN120 18.3 18.2 99% 76.1 0.0
02 05:55 E 9 16.09 Light Rain SCT090 BKN110 18.5 18 97% 76 0.0 0.25
Date Time (cdt) Wind (kph) Vis. (km) Weather Sky Cond. Air Dwpt Max. Min. Relative Humidity Wind Chill (°C) Heat Index (°C) altimeter (cm) sea level (mb) 1 hr 3 hr 6 hr
6 hour
Temperature (ºC) Pressure Precipitation (cm)